createdAt,value
2022-09-16T00:02:19.235Z,18.93
2022-09-16T00:04:54.026Z,18.94
2022-09-16T00:07:25.777Z,18.96
2022-09-16T00:09:59.234Z,18.96
2022-09-16T00:12:32.150Z,18.97
2022-09-16T00:15:05.697Z,18.94
2022-09-16T00:17:38.826Z,18.91
2022-09-16T00:20:12.325Z,18.89
2022-09-16T00:22:45.112Z,18.92
2022-09-16T00:25:18.199Z,18.89
2022-09-16T00:27:51.560Z,18.88
2022-09-16T00:30:25.489Z,18.87
2022-09-16T00:32:58.601Z,18.87
2022-09-16T00:35:31.837Z,18.87
2022-09-16T00:38:04.747Z,18.86
2022-09-16T00:40:49.193Z,18.85
2022-09-16T00:43:22.680Z,18.84
2022-09-16T00:46:02.578Z,18.84
2022-09-16T00:48:36.651Z,18.84
2022-09-16T00:51:11.255Z,18.85
2022-09-16T00:54:00.456Z,18.85
2022-09-16T00:56:38.600Z,18.86
2022-09-16T00:59:33.862Z,18.85
2022-09-16T01:02:10.969Z,18.85
2022-09-16T01:05:06.703Z,18.83
2022-09-16T01:07:43.473Z,18.83
2022-09-16T01:10:20.165Z,18.82
2022-09-16T01:13:04.661Z,18.80
2022-09-16T01:16:13.837Z,18.82
2022-09-16T01:18:50.192Z,18.80
2022-09-16T01:21:39.763Z,18.77
2022-09-16T01:24:19.993Z,18.75
2022-09-16T01:27:21.387Z,18.73
2022-09-16T01:30:22.994Z,18.71
2022-09-16T01:33:05.419Z,18.70
2022-09-16T01:35:52.612Z,18.70
2022-09-16T01:38:53.036Z,18.68
2022-09-16T01:41:42.520Z,18.68
2022-09-16T01:44:54.266Z,18.67
2022-09-16T01:47:55.945Z,18.66
2022-09-16T01:50:43.218Z,18.67
2022-09-16T01:53:37.462Z,18.68
2022-09-16T01:56:28.197Z,18.70
2022-09-16T01:59:10.184Z,18.70
2022-09-16T02:01:54.395Z,18.71
2022-09-16T02:04:35.289Z,18.73
2022-09-16T02:07:11.022Z,18.74
2022-09-16T02:09:49.321Z,18.77
2022-09-16T02:12:26.685Z,18.78
2022-09-16T02:15:04.055Z,18.78
2022-09-16T02:17:41.298Z,18.76
2022-09-16T02:20:17.761Z,18.76
2022-09-16T02:22:55.272Z,18.77
2022-09-16T02:25:28.978Z,18.76
2022-09-16T02:28:04.654Z,18.73
2022-09-16T02:30:38.382Z,18.73
2022-09-16T02:33:13.690Z,18.72
2022-09-16T02:35:50.373Z,18.70
2022-09-16T02:38:36.660Z,18.68
2022-09-16T02:41:11.424Z,18.66
2022-09-16T02:43:47.423Z,18.65
2022-09-16T02:46:33.698Z,18.65
2022-09-16T02:49:17.598Z,18.67
2022-09-16T02:52:28.503Z,18.66
2022-09-16T02:55:32.867Z,18.66
2022-09-16T02:58:08.100Z,18.66
2022-09-16T03:00:46.922Z,18.67
2022-09-16T03:03:20.463Z,18.68
2022-09-16T03:06:19.723Z,18.66
2022-09-16T03:08:54.418Z,18.67
2022-09-16T03:11:35.380Z,18.66
2022-09-16T03:14:37.752Z,18.66
2022-09-16T03:17:42.379Z,18.67
2022-09-16T03:20:35.128Z,18.65
2022-09-16T03:23:46.105Z,18.63
2022-09-16T03:26:44.730Z,18.64
2022-09-16T03:29:29.995Z,18.62
2022-09-16T03:32:26.030Z,18.60
2022-09-16T03:35:05.964Z,18.58
2022-09-16T03:37:40.268Z,18.58
2022-09-16T03:40:16.789Z,18.59
2022-09-16T03:42:49.930Z,18.61
2022-09-16T03:45:24.531Z,18.65
2022-09-16T03:47:57.241Z,18.66
2022-09-16T03:50:30.201Z,18.69
2022-09-16T03:53:03.731Z,18.69
2022-09-16T03:55:37.071Z,18.71
2022-09-16T03:58:10.282Z,18.73
2022-09-16T04:00:43.322Z,18.76
2022-09-16T04:03:17.225Z,18.80
2022-09-16T04:05:55.741Z,18.87
2022-09-16T04:08:28.402Z,18.90
2022-09-16T04:11:05.317Z,18.92
2022-09-16T04:13:39.237Z,18.94
2022-09-16T04:16:12.796Z,19.00
2022-09-16T04:18:45.557Z,19.04
2022-09-16T04:21:20.253Z,19.07
2022-09-16T04:23:54.903Z,19.10
2022-09-16T04:26:27.704Z,19.14
2022-09-16T04:29:01.159Z,19.16
2022-09-16T04:31:34.182Z,19.19
2022-09-16T04:34:07.797Z,19.20
2022-09-16T04:36:40.737Z,19.22
2022-09-16T04:39:14.036Z,19.24
2022-09-16T04:41:47.089Z,19.27
2022-09-16T04:44:20.054Z,19.29
2022-09-16T04:46:52.643Z,19.31
2022-09-16T04:49:25.465Z,19.32
2022-09-16T04:51:58.298Z,19.32
2022-09-16T04:54:31.073Z,19.31
2022-09-16T04:57:04.302Z,19.30
2022-09-16T04:59:37.088Z,19.29
2022-09-16T05:02:09.998Z,19.27
2022-09-16T05:04:43.084Z,19.27
2022-09-16T05:07:16.194Z,19.24
2022-09-16T05:09:49.158Z,19.23
2022-09-16T05:12:22.775Z,19.23
2022-09-16T05:14:57.063Z,19.25
2022-09-16T05:17:50.403Z,19.28
2022-09-16T05:20:09.186Z,19.29
2022-09-16T05:22:41.061Z,19.31
2022-09-16T05:25:14.368Z,19.34
2022-09-16T05:27:47.568Z,19.38
2022-09-16T05:30:25.804Z,19.41
2022-09-16T05:32:58.253Z,19.46
2022-09-16T05:35:31.604Z,19.50
2022-09-16T05:38:04.456Z,19.55
2022-09-16T05:40:37.460Z,19.59
2022-09-16T05:43:10.718Z,19.67
2022-09-16T05:45:43.659Z,19.74
2022-09-16T05:48:16.621Z,19.81
2022-09-16T05:51:05.192Z,19.87
2022-09-16T05:53:38.747Z,19.95
2022-09-16T05:56:22.377Z,20.01
2022-09-16T05:58:58.041Z,20.09
2022-09-16T06:01:36.492Z,20.15
2022-09-16T06:04:12.912Z,20.19
2022-09-16T06:06:48.295Z,20.22
2022-09-16T06:09:24.758Z,20.23
2022-09-16T06:12:01.941Z,20.23
2022-09-16T06:14:32.821Z,20.25
2022-09-16T06:17:05.953Z,20.29
2022-09-16T06:19:38.989Z,20.33
2022-09-16T06:22:12.384Z,20.37
2022-09-16T06:24:45.349Z,20.39
2022-09-16T06:27:19.509Z,20.43
2022-09-16T06:30:09.983Z,20.47
2022-09-16T06:32:42.982Z,20.50
2022-09-16T06:35:15.829Z,20.53
2022-09-16T06:37:48.842Z,20.56
2022-09-16T06:40:21.832Z,20.63
2022-09-16T06:43:00.167Z,20.72
2022-09-16T06:45:32.302Z,20.77
2022-09-16T06:48:05.911Z,20.85
2022-09-16T06:50:38.772Z,20.92
2022-09-16T06:53:11.642Z,20.96
2022-09-16T06:55:44.859Z,20.95
2022-09-16T06:58:17.641Z,20.94
2022-09-16T07:00:51.411Z,21.00
2022-09-16T07:03:24.231Z,21.07
2022-09-16T07:06:02.116Z,21.08
2022-09-16T07:08:36.280Z,21.06
2022-09-16T07:11:17.911Z,21.04
2022-09-16T07:13:51.898Z,21.03
2022-09-16T07:16:27.720Z,21.04
2022-09-16T07:19:01.484Z,21.08
2022-09-16T07:21:36.220Z,21.15
2022-09-16T07:24:10.697Z,21.22
2022-09-16T07:26:45.507Z,21.30
2022-09-16T07:29:21.093Z,21.39
2022-09-16T07:31:53.845Z,21.55
2022-09-16T07:34:27.170Z,21.55
2022-09-16T07:37:01.853Z,21.62
2022-09-16T07:39:34.858Z,21.64
2022-09-16T07:42:07.953Z,21.68
2022-09-16T07:44:41.442Z,21.73
2022-09-16T07:47:16.018Z,21.79
2022-09-16T07:49:49.213Z,21.83
2022-09-16T07:52:21.998Z,21.87
2022-09-16T07:54:55.097Z,21.93
2022-09-16T07:57:27.928Z,21.98
2022-09-16T08:00:01.141Z,22.03
2022-09-16T08:02:35.927Z,22.09
2022-09-16T08:05:10.310Z,22.16
2022-09-16T08:07:43.645Z,22.28
2022-09-16T08:10:16.862Z,22.36
2022-09-16T08:12:51.756Z,22.44
2022-09-16T08:15:24.793Z,22.51
2022-09-16T08:17:58.746Z,22.58
2022-09-16T08:20:31.729Z,22.58
2022-09-16T08:23:04.933Z,22.65
2022-09-16T08:25:37.901Z,22.67
2022-09-16T08:28:18.251Z,22.73
2022-09-16T08:30:53.394Z,22.78
2022-09-16T08:33:28.009Z,22.84
2022-09-16T08:36:20.392Z,22.93
2022-09-16T08:38:57.021Z,23.05
2022-09-16T08:41:55.555Z,23.05
2022-09-16T08:44:54.235Z,23.10
2022-09-16T08:48:02.120Z,23.10
2022-09-16T08:50:40.236Z,23.10
2022-09-16T08:53:18.361Z,23.06
2022-09-16T08:55:52.885Z,23.08
2022-09-16T08:58:28.251Z,23.17
2022-09-16T09:01:06.560Z,23.30
2022-09-16T09:03:46.000Z,23.45
2022-09-16T09:06:33.173Z,23.60
2022-09-16T09:09:17.415Z,23.72
2022-09-16T09:12:17.470Z,23.84
2022-09-16T09:15:28.395Z,23.92
2022-09-16T09:18:47.604Z,23.98
2022-09-16T09:21:40.216Z,24.04
2022-09-16T09:24:43.256Z,24.13
2022-09-16T09:27:34.610Z,24.22
2022-09-16T09:30:25.970Z,24.31
2022-09-16T09:33:45.657Z,24.38
2022-09-16T09:36:23.848Z,24.48
2022-09-16T09:39:32.102Z,24.51
2022-09-16T09:42:29.838Z,24.52
2022-09-16T09:45:08.458Z,24.54
2022-09-16T09:48:04.623Z,24.58
2022-09-16T09:50:50.048Z,24.63
2022-09-16T09:53:48.635Z,24.62
2022-09-16T09:56:32.010Z,24.62
2022-09-16T09:59:35.250Z,24.65
2022-09-16T10:02:18.550Z,24.71
2022-09-16T10:04:52.120Z,24.85
2022-09-16T10:07:27.305Z,24.99
2022-09-16T10:10:20.861Z,25.13
2022-09-16T10:12:54.839Z,25.28
2022-09-16T10:15:32.100Z,25.45
2022-09-16T10:18:15.298Z,25.54
2022-09-16T10:21:13.843Z,25.60
2022-09-16T10:23:58.769Z,25.63
2022-09-16T10:26:31.869Z,25.63
2022-09-16T10:29:19.918Z,25.58
2022-09-16T10:31:53.049Z,25.54
2022-09-16T10:34:40.223Z,25.53
2022-09-16T10:37:17.851Z,25.54
2022-09-16T10:39:58.935Z,25.56
2022-09-16T10:42:32.142Z,25.57
2022-09-16T10:45:26.582Z,25.58
2022-09-16T10:48:07.356Z,25.58
2022-09-16T10:50:40.340Z,25.58
2022-09-16T10:53:32.844Z,25.58
2022-09-16T10:56:09.812Z,25.61
2022-09-16T10:58:42.584Z,25.65
2022-09-16T11:01:44.295Z,25.68
2022-09-16T11:04:55.162Z,25.76
2022-09-16T11:07:45.159Z,25.87
2022-09-16T11:10:31.751Z,25.94
2022-09-16T11:13:39.731Z,25.91
2022-09-16T11:16:35.138Z,25.91
2022-09-16T11:19:42.347Z,25.91
2022-09-16T11:22:48.011Z,25.85
2022-09-16T11:25:35.057Z,25.79
2022-09-16T11:28:30.361Z,25.70
2022-09-16T11:31:35.486Z,25.67
2022-09-16T11:34:13.292Z,25.68
2022-09-16T11:37:11.443Z,25.69
2022-09-16T11:39:57.711Z,25.70
2022-09-16T11:42:35.432Z,25.68
2022-09-16T11:45:54.638Z,25.66
2022-09-16T11:48:44.818Z,25.67
2022-09-16T11:51:48.241Z,25.70
2022-09-16T11:55:01.000Z,25.74
2022-09-16T11:57:38.939Z,25.77
2022-09-16T12:00:18.801Z,25.83
2022-09-16T12:03:14.547Z,25.87
2022-09-16T12:05:54.880Z,25.87
2022-09-16T12:09:10.970Z,25.83
2022-09-16T12:11:47.407Z,25.80
2022-09-16T12:14:33.211Z,25.71
2022-09-16T12:17:25.588Z,25.63
2022-09-16T12:20:06.630Z,25.54
2022-09-16T12:22:52.694Z,25.42
2022-09-16T12:25:55.923Z,25.36
2022-09-16T12:28:51.697Z,25.28
2022-09-16T12:31:46.767Z,25.24
2022-09-16T12:34:32.807Z,25.22
2022-09-16T12:37:42.310Z,25.21
2022-09-16T12:40:20.715Z,25.19
2022-09-16T12:43:20.649Z,25.19
2022-09-16T12:46:19.526Z,25.23
2022-09-16T12:49:16.372Z,25.34
2022-09-16T12:52:05.982Z,25.44
2022-09-16T12:55:24.400Z,25.51
2022-09-16T12:58:20.056Z,25.49
2022-09-16T13:01:18.690Z,25.38
2022-09-16T13:04:14.126Z,25.25
2022-09-16T13:06:53.487Z,25.06
2022-09-16T13:09:42.100Z,24.91
2022-09-16T13:12:44.649Z,24.79
2022-09-16T13:15:07.662Z,24.67
2022-09-16T13:17:41.962Z,24.56
2022-09-16T13:20:22.133Z,24.46
2022-09-16T13:23:05.612Z,24.35
2022-09-16T13:26:01.261Z,24.27
2022-09-16T13:28:46.631Z,24.17
2022-09-16T13:31:26.026Z,24.10
2022-09-16T13:34:05.996Z,24.05
2022-09-16T13:36:40.669Z,24.01
2022-09-16T13:39:17.286Z,23.96
2022-09-16T13:41:50.332Z,23.91
2022-09-16T13:44:42.223Z,23.78
2022-09-16T13:47:18.530Z,23.78
2022-09-16T13:50:04.703Z,23.72
2022-09-16T13:52:39.245Z,23.68
2022-09-16T13:55:26.653Z,23.63
2022-09-16T13:58:28.872Z,23.54
2022-09-16T14:01:32.234Z,23.41
2022-09-16T14:04:37.863Z,23.30
2022-09-16T14:07:43.864Z,23.19
2022-09-16T14:10:24.198Z,23.08
2022-09-16T14:13:07.673Z,23.01
2022-09-16T14:15:46.689Z,22.93
2022-09-16T14:18:24.409Z,22.90
2022-09-16T14:21:05.448Z,22.86
2022-09-16T14:23:38.906Z,22.81
2022-09-16T14:26:15.599Z,22.79
2022-09-16T14:28:49.064Z,22.76
2022-09-16T14:31:24.096Z,22.73
2022-09-16T14:34:04.698Z,22.71
2022-09-16T14:36:40.862Z,22.69
2022-09-16T14:39:17.812Z,22.68
2022-09-16T14:42:00.074Z,22.65
2022-09-16T14:44:39.185Z,22.64
2022-09-16T14:47:39.830Z,22.63
2022-09-16T14:50:05.989Z,22.63
2022-09-16T14:52:39.048Z,22.63
2022-09-16T14:55:29.596Z,22.65
2022-09-16T14:58:03.447Z,22.65
2022-09-16T15:00:52.930Z,22.66
2022-09-16T15:03:51.388Z,22.62
2022-09-16T15:06:28.898Z,22.60
2022-09-16T15:09:07.312Z,22.56
2022-09-16T15:11:48.718Z,22.55
2022-09-16T15:14:22.171Z,22.52
2022-09-16T15:17:01.204Z,22.46
2022-09-16T15:19:40.174Z,22.41
2022-09-16T15:22:15.565Z,22.34
2022-09-16T15:24:52.807Z,22.27
2022-09-16T15:27:29.449Z,22.26
2022-09-16T15:30:04.863Z,22.20
2022-09-16T15:32:42.415Z,22.15
2022-09-16T15:35:31.274Z,22.10
2022-09-16T15:38:14.068Z,22.04
2022-09-16T15:40:48.012Z,21.99
2022-09-16T15:43:28.269Z,21.91
2022-09-16T15:46:05.290Z,21.82
2022-09-16T15:48:45.533Z,21.69
2022-09-16T15:51:34.464Z,21.62
2022-09-16T15:54:17.550Z,21.56
2022-09-16T15:57:32.306Z,21.45
2022-09-16T16:00:15.864Z,21.35
2022-09-16T16:02:56.229Z,21.23
2022-09-16T16:05:31.375Z,21.18
2022-09-16T16:08:09.749Z,21.13
2022-09-16T16:10:41.609Z,21.08
2022-09-16T16:13:15.013Z,21.05
2022-09-16T16:15:48.363Z,21.03
2022-09-16T16:18:22.592Z,20.99
2022-09-16T16:20:55.414Z,20.95
2022-09-16T16:23:28.901Z,20.93
2022-09-16T16:26:01.751Z,20.90
2022-09-16T16:28:36.259Z,20.90
2022-09-16T16:31:16.566Z,20.88
2022-09-16T16:33:50.193Z,20.88
2022-09-16T16:36:24.563Z,20.87
2022-09-16T16:38:57.784Z,20.85
2022-09-16T16:41:30.615Z,20.77
2022-09-16T16:44:03.459Z,20.72
2022-09-16T16:46:36.454Z,20.71
2022-09-16T16:49:09.465Z,20.74
2022-09-16T16:51:42.310Z,20.75
2022-09-16T16:54:15.974Z,20.72
2022-09-16T16:56:49.236Z,20.68
2022-09-16T16:59:23.243Z,20.58
2022-09-16T17:01:58.118Z,20.58
2022-09-16T17:04:31.112Z,20.51
2022-09-16T17:07:24.799Z,20.45
2022-09-16T17:09:40.261Z,20.43
2022-09-16T17:12:13.272Z,20.47
2022-09-16T17:14:46.721Z,20.50
2022-09-16T17:17:19.506Z,20.52
2022-09-16T17:19:53.516Z,20.50
2022-09-16T17:22:26.686Z,20.51
2022-09-16T17:24:59.855Z,20.54
2022-09-16T17:27:32.780Z,20.55
2022-09-16T17:30:06.622Z,20.57
2022-09-16T17:32:40.066Z,20.59
2022-09-16T17:35:12.917Z,20.64
2022-09-16T17:37:46.148Z,20.67
2022-09-16T17:40:20.745Z,20.67
2022-09-16T17:42:53.144Z,20.64
2022-09-16T17:45:25.896Z,20.59
2022-09-16T17:47:59.432Z,20.55
2022-09-16T17:50:32.374Z,20.50
2022-09-16T17:53:05.434Z,20.44
2022-09-16T17:55:39.086Z,20.41
2022-09-16T17:58:14.327Z,20.39
2022-09-16T18:00:47.486Z,20.37
2022-09-16T18:03:20.263Z,20.35
2022-09-16T18:05:53.944Z,20.33
2022-09-16T18:08:27.117Z,20.31
2022-09-16T18:11:00.284Z,20.31
2022-09-16T18:13:33.711Z,20.31
2022-09-16T18:16:11.044Z,20.33
2022-09-16T18:18:45.792Z,20.36
2022-09-16T18:21:20.198Z,20.35
2022-09-16T18:23:56.961Z,20.33
2022-09-16T18:26:30.426Z,20.33
2022-09-16T18:29:10.153Z,20.29
2022-09-16T18:31:45.380Z,20.28
2022-09-16T18:34:19.821Z,20.25
2022-09-16T18:36:52.537Z,20.19
2022-09-16T18:39:25.439Z,20.17
2022-09-16T18:41:58.548Z,20.09
2022-09-16T18:44:31.908Z,20.05
2022-09-16T18:47:04.958Z,20.03
2022-09-16T18:49:39.435Z,19.99
2022-09-16T18:52:13.091Z,19.93
2022-09-16T18:54:49.285Z,19.87
2022-09-16T18:57:24.431Z,19.80
2022-09-16T18:59:57.276Z,19.74
2022-09-16T19:02:30.361Z,19.69
2022-09-16T19:05:03.544Z,19.67
2022-09-16T19:07:38.478Z,19.63
2022-09-16T19:10:12.287Z,19.63
2022-09-16T19:12:45.273Z,19.65
2022-09-16T19:15:18.167Z,19.67
2022-09-16T19:17:52.825Z,19.64
2022-09-16T19:20:26.539Z,19.63
2022-09-16T19:22:59.991Z,19.60
2022-09-16T19:25:33.901Z,19.60
2022-09-16T19:28:07.034Z,19.57
2022-09-16T19:30:40.054Z,19.52
2022-09-16T19:33:13.325Z,19.52
2022-09-16T19:35:47.120Z,19.50
2022-09-16T19:38:21.515Z,19.49
2022-09-16T19:41:03.907Z,19.45
2022-09-16T19:43:37.516Z,19.41
2022-09-16T19:46:17.143Z,19.37
2022-09-16T19:48:51.327Z,19.35
2022-09-16T19:51:24.282Z,19.30
2022-09-16T19:53:58.751Z,19.28
2022-09-16T19:56:34.586Z,19.26
2022-09-16T19:59:07.670Z,19.22
2022-09-16T20:01:40.615Z,19.19
2022-09-16T20:04:13.644Z,19.14
2022-09-16T20:06:46.534Z,19.12
2022-09-16T20:09:20.346Z,19.07
2022-09-16T20:11:53.212Z,19.02
2022-09-16T20:14:27.707Z,18.97
2022-09-16T20:17:00.803Z,18.94
2022-09-16T20:19:33.854Z,18.88
2022-09-16T20:22:07.119Z,18.84
2022-09-16T20:24:42.273Z,18.81
2022-09-16T20:27:15.016Z,18.80
2022-09-16T20:29:48.453Z,18.77
2022-09-16T20:32:21.666Z,18.75
2022-09-16T20:34:54.494Z,18.75
2022-09-16T20:37:27.434Z,18.78
2022-09-16T20:40:00.558Z,18.78
2022-09-16T20:42:34.596Z,18.73
2022-09-16T20:45:08.482Z,18.72
2022-09-16T20:47:41.969Z,18.66
2022-09-16T20:50:15.135Z,18.62
2022-09-16T20:52:49.766Z,18.60
2022-09-16T20:55:22.632Z,18.56
2022-09-16T20:57:55.341Z,18.55
2022-09-16T21:00:29.006Z,18.48
2022-09-16T21:03:01.875Z,18.41
2022-09-16T21:05:35.182Z,18.38
2022-09-16T21:08:08.572Z,18.36
2022-09-16T21:10:42.301Z,18.36
2022-09-16T21:13:15.088Z,18.34
2022-09-16T21:15:59.602Z,18.33
2022-09-16T21:18:32.598Z,18.29
2022-09-16T21:21:15.681Z,18.26
2022-09-16T21:23:53.129Z,18.19
2022-09-16T21:26:30.435Z,18.13
2022-09-16T21:29:11.280Z,18.10
2022-09-16T21:31:44.954Z,18.05
2022-09-16T21:34:20.579Z,18.00
2022-09-16T21:36:53.438Z,17.98
2022-09-16T21:39:26.656Z,17.99
2022-09-16T21:41:59.678Z,17.96
2022-09-16T21:44:32.488Z,17.95
2022-09-16T21:47:07.167Z,17.97
2022-09-16T21:49:40.729Z,17.97
2022-09-16T21:52:13.440Z,17.91
2022-09-16T21:54:46.634Z,17.82
2022-09-16T21:57:20.338Z,17.76
2022-09-16T21:59:53.140Z,17.72
2022-09-16T22:02:29.144Z,17.72
2022-09-16T22:05:00.880Z,17.65
2022-09-16T22:07:34.789Z,17.56
2022-09-16T22:10:08.862Z,17.46
2022-09-16T22:12:41.964Z,17.42
2022-09-16T22:15:16.466Z,17.40
2022-09-16T22:17:51.935Z,17.36
2022-09-16T22:20:25.054Z,17.28
2022-09-16T22:22:57.776Z,17.24
2022-09-16T22:25:30.539Z,17.17
2022-09-16T22:28:03.763Z,17.10
2022-09-16T22:30:37.057Z,17.06
2022-09-16T22:33:10.269Z,17.03
2022-09-16T22:35:43.214Z,16.98
2022-09-16T22:38:16.120Z,16.94
2022-09-16T22:40:48.971Z,16.87
2022-09-16T22:43:22.100Z,16.85
2022-09-16T22:45:55.006Z,16.79
2022-09-16T22:48:28.173Z,16.73
2022-09-16T22:51:01.973Z,16.69
2022-09-16T22:53:35.505Z,16.66
2022-09-16T22:56:12.050Z,16.63
2022-09-16T22:58:45.299Z,16.63
2022-09-16T23:01:21.418Z,16.59
2022-09-16T23:03:58.486Z,16.57
2022-09-16T23:06:32.783Z,16.58
2022-09-16T23:09:07.947Z,16.58
2022-09-16T23:11:40.705Z,16.58
2022-09-16T23:14:18.731Z,16.58
2022-09-16T23:16:52.038Z,16.55
2022-09-16T23:19:25.580Z,16.54
2022-09-16T23:21:58.317Z,16.50
2022-09-16T23:24:31.414Z,16.44
2022-09-16T23:27:04.934Z,16.44
2022-09-16T23:29:38.726Z,16.43
2022-09-16T23:32:12.085Z,16.42
2022-09-16T23:34:45.212Z,16.38
2022-09-16T23:37:18.062Z,16.37
2022-09-16T23:39:51.066Z,16.37
2022-09-16T23:42:24.314Z,16.32
2022-09-16T23:44:57.173Z,16.25
2022-09-16T23:47:30.075Z,16.23
2022-09-16T23:50:03.336Z,16.23
2022-09-16T23:52:37.147Z,16.21
2022-09-16T23:55:10.753Z,16.16
2022-09-16T23:57:43.676Z,16.18
